createdAt,value
2023-12-31T00:01:00.340Z,4.70
2023-12-31T00:06:26.141Z,5.85
2023-12-31T00:16:35.034Z,5.50
2023-12-31T00:21:45.180Z,5.80
2023-12-31T00:26:50.031Z,5.82
2023-12-31T00:31:54.665Z,5.82
2023-12-31T00:37:00.614Z,5.35
2023-12-31T00:47:10.829Z,6.28
2023-12-31T00:52:16.927Z,5.88
2023-12-31T00:57:21.767Z,5.35
2023-12-31T01:02:26.133Z,5.30
2023-12-31T01:07:32.069Z,5.03
2023-12-31T01:12:36.687Z,5.40
2023-12-31T01:17:41.294Z,5.55
2023-12-31T01:22:47.404Z,5.40
2023-12-31T01:27:55.068Z,5.25
2023-12-31T01:33:00.553Z,5.45
2023-12-31T01:38:06.865Z,5.77
2023-12-31T01:43:11.665Z,5.20
2023-12-31T01:48:17.356Z,4.57
2023-12-31T01:53:23.388Z,4.70
2023-12-31T01:58:28.316Z,5.20
2023-12-31T02:03:33.385Z,6.43
2023-12-31T02:08:39.933Z,5.97
2023-12-31T02:13:45.369Z,6.72
2023-12-31T02:18:50.325Z,8.32
2023-12-31T02:23:56.667Z,9.00
2023-12-31T02:29:02.678Z,9.32
2023-12-31T02:34:08.157Z,8.23
2023-12-31T02:39:13.011Z,8.13
2023-12-31T02:44:19.702Z,8.05
2023-12-31T02:49:25.516Z,7.50
2023-12-31T02:54:30.172Z,6.88
2023-12-31T02:59:36.280Z,7.72
2023-12-31T03:04:42.112Z,7.13
2023-12-31T03:09:47.321Z,7.35
2023-12-31T03:14:53.288Z,7.32
2023-12-31T03:19:58.721Z,6.75
2023-12-31T03:25:03.290Z,6.65
2023-12-31T03:30:10.220Z,7.00
2023-12-31T03:35:15.025Z,6.28
2023-12-31T03:40:20.602Z,7.07
2023-12-31T03:45:26.412Z,7.03
2023-12-31T03:55:35.134Z,6.88
2023-12-31T04:00:41.195Z,7.00
2023-12-31T04:05:45.773Z,7.25
2023-12-31T04:10:50.460Z,6.68
2023-12-31T04:15:56.690Z,8.30
2023-12-31T04:21:03.795Z,7.65
2023-12-31T04:26:08.597Z,7.63
2023-12-31T04:31:14.517Z,7.45
2023-12-31T04:36:19.032Z,6.90
2023-12-31T04:41:25.677Z,8.02
2023-12-31T04:46:31.685Z,6.75
2023-12-31T04:51:36.208Z,7.95
2023-12-31T04:56:40.737Z,7.55
2023-12-31T05:01:47.045Z,7.65
2023-12-31T05:06:51.825Z,7.32
2023-12-31T05:11:56.287Z,8.13
2023-12-31T05:17:02.432Z,7.50
2023-12-31T05:22:07.018Z,7.28
2023-12-31T05:27:12.971Z,6.60
2023-12-31T05:32:19.578Z,6.47
2023-12-31T05:37:24.702Z,7.75
2023-12-31T05:42:29.903Z,7.33
2023-12-31T05:47:45.867Z,7.05
2023-12-31T05:52:54.394Z,7.47
2023-12-31T05:58:00.432Z,7.05
2023-12-31T06:03:07.226Z,7.13
2023-12-31T06:08:13.355Z,7.68
2023-12-31T06:18:23.552Z,6.63
2023-12-31T06:23:28.221Z,6.30
2023-12-31T06:28:32.731Z,5.95
2023-12-31T06:33:38.882Z,6.43
2023-12-31T06:38:43.417Z,6.60
2023-12-31T06:43:48.054Z,7.72
2023-12-31T06:48:54.151Z,7.15
2023-12-31T06:53:59.573Z,8.57
2023-12-31T06:59:04.247Z,8.90
2023-12-31T07:04:09.985Z,8.55
2023-12-31T07:09:14.342Z,7.88
2023-12-31T07:14:18.862Z,7.72
2023-12-31T07:19:24.874Z,9.13
2023-12-31T07:24:29.304Z,8.27
2023-12-31T07:29:33.799Z,8.32
2023-12-31T07:34:39.744Z,8.00
2023-12-31T07:44:48.309Z,8.52
2023-12-31T07:49:54.323Z,7.90
2023-12-31T08:00:03.333Z,7.18
2023-12-31T08:05:17.780Z,7.05
2023-12-31T08:10:22.278Z,7.63
2023-12-31T08:15:26.842Z,7.32
2023-12-31T08:20:34.787Z,7.25
2023-12-31T08:25:39.350Z,7.40
2023-12-31T08:30:48.315Z,7.63
2023-12-31T08:35:54.545Z,7.13
2023-12-31T08:41:16.473Z,7.90
2023-12-31T08:46:22.262Z,7.28
2023-12-31T08:51:29.623Z,7.55
2023-12-31T08:56:34.198Z,8.45
2023-12-31T09:01:39.050Z,8.23
2023-12-31T09:06:46.305Z,7.93
2023-12-31T09:19:33.293Z,8.63
2023-12-31T11:10:16.162Z,9.55
2023-12-31T11:36:12.594Z,9.20
2023-12-31T11:41:46.617Z,9.23
2023-12-31T11:46:55.917Z,9.80
2023-12-31T11:52:11.401Z,9.75
2023-12-31T11:57:23.916Z,9.57
2023-12-31T12:02:39.538Z,9.20
2023-12-31T12:08:06.507Z,9.05
2023-12-31T12:13:24.362Z,9.07
2023-12-31T12:23:51.357Z,8.77
2023-12-31T12:44:02.829Z,9.55
2023-12-31T12:49:28.735Z,10.38
2023-12-31T12:54:45.051Z,10.30
2023-12-31T12:59:59.321Z,11.80
2023-12-31T13:05:04.272Z,12.10
2023-12-31T13:10:11.375Z,13.10
2023-12-31T13:15:25.574Z,13.50
2023-12-31T13:20:31.214Z,12.60
2023-12-31T13:25:36.112Z,11.05
2023-12-31T13:31:12.249Z,11.47
2023-12-31T13:36:17.146Z,13.20
2023-12-31T13:41:31.338Z,12.13
2023-12-31T14:01:24.610Z,11.27
2023-12-31T14:06:29.729Z,10.82
2023-12-31T14:11:37.917Z,10.93
2023-12-31T14:17:04.306Z,12.30
2023-12-31T14:22:34.003Z,10.43
2023-12-31T14:27:45.620Z,11.10
2023-12-31T14:37:59.480Z,12.63
2023-12-31T14:48:14.151Z,14.80
2023-12-31T16:11:54.465Z,15.85
2023-12-31T16:17:03.066Z,17.20
2023-12-31T16:22:09.253Z,16.77
2023-12-31T16:27:36.233Z,18.90
2023-12-31T16:33:54.667Z,20.38
2023-12-31T16:39:25.484Z,21.98
2023-12-31T16:45:08.883Z,21.92
2023-12-31T16:50:48.834Z,24.95
2023-12-31T17:14:06.511Z,20.63
2023-12-31T17:19:20.390Z,19.98
2023-12-31T17:24:28.528Z,21.67
2023-12-31T17:29:39.960Z,21.85
2023-12-31T17:41:27.552Z,14.98
2023-12-31T18:00:30.822Z,11.15
2023-12-31T18:11:45.976Z,8.80
2023-12-31T18:17:03.106Z,9.55
2023-12-31T18:23:25.770Z,9.82
2023-12-31T18:28:33.228Z,9.57
2023-12-31T18:33:39.686Z,9.02
2023-12-31T19:29:40.133Z,10.40
2023-12-31T19:42:48.465Z,11.63
2023-12-31T19:59:52.222Z,10.55
2023-12-31T20:05:55.052Z,12.18
2023-12-31T20:11:58.514Z,10.95
2023-12-31T20:17:47.094Z,9.75
2023-12-31T20:30:08.062Z,11.18
2023-12-31T20:35:17.515Z,10.52
2023-12-31T20:43:32.374Z,11.20
2023-12-31T20:48:50.071Z,10.07
2023-12-31T20:54:21.857Z,10.50
2023-12-31T21:00:01.440Z,9.07
2023-12-31T21:05:11.910Z,10.13
2023-12-31T21:23:41.419Z,9.93
2023-12-31T21:29:00.965Z,9.40
2023-12-31T21:34:14.790Z,8.60
2023-12-31T21:39:19.724Z,9.63
2023-12-31T21:49:33.134Z,9.23
2023-12-31T21:54:38.043Z,9.55
2023-12-31T21:59:44.362Z,9.90
2023-12-31T22:04:49.942Z,10.00
2023-12-31T22:10:01.894Z,8.90
2023-12-31T22:15:09.568Z,9.30
2023-12-31T22:20:18.088Z,9.30
2023-12-31T22:25:23.340Z,9.95
2023-12-31T22:30:30.006Z,9.00
2023-12-31T22:35:34.670Z,12.07
2023-12-31T22:40:42.002Z,10.27
2023-12-31T22:45:48.462Z,11.40
2023-12-31T22:50:53.330Z,10.35
2023-12-31T22:55:59.040Z,11.23
2023-12-31T23:01:05.295Z,10.65
2023-12-31T23:11:18.796Z,18.10
2023-12-31T23:16:25.153Z,13.87
2023-12-31T23:21:51.005Z,13.15
2023-12-31T23:26:56.000Z,13.65
2023-12-31T23:32:02.108Z,14.43
2023-12-31T23:37:09.521Z,14.00
2023-12-31T23:42:16.013Z,14.85
2023-12-31T23:47:23.249Z,12.90
2023-12-31T23:52:29.975Z,12.40
2023-12-31T23:57:38.205Z,13.20
